sensor_id;sensor_type;location;lat;lon;timestamp;temperature;humidity
15844;DHT22;50807;52.436;13.346;2023-02-15T00:00:14;8.00;92.30
15844;DHT22;50807;52.436;13.346;2023-02-15T00:00:45;8.00;92.30
15844;DHT22;50807;52.436;13.346;2023-02-15T00:01:15;8.00;92.30
15844;DHT22;50807;52.436;13.346;2023-02-15T00:01:47;8.00;92.40
15844;DHT22;50807;52.436;13.346;2023-02-15T00:02:19;8.00;92.40
15844;DHT22;50807;52.436;13.346;2023-02-15T00:02:50;8.00;92.40
15844;DHT22;50807;52.436;13.346;2023-02-15T00:03:21;8.00;92.40
15844;DHT22;50807;52.436;13.346;2023-02-15T00:03:52;7.90;92.40
15844;DHT22;50807;52.436;13.346;2023-02-15T00:04:25;8.00;92.40
15844;DHT22;50807;52.436;13.346;2023-02-15T00:05:16;8.00;92.40
15844;DHT22;50807;52.436;13.346;2023-02-15T00:05:47;8.00;92.40
15844;DHT22;50807;52.436;13.346;2023-02-15T00:06:19;8.00;92.40
15844;DHT22;50807;52.436;13.346;2023-02-15T00:06:50;8.00;92.40
15844;DHT22;50807;52.436;13.346;2023-02-15T00:07:21;7.90;92.70
15844;DHT22;50807;52.436;13.346;2023-02-15T00:07:52;7.90;92.40
15844;DHT22;50807;52.436;13.346;2023-02-15T00:08:23;7.90;92.40
15844;DHT22;50807;52.436;13.346;2023-02-15T00:08:55;7.90;92.70
15844;DHT22;50807;52.436;13.346;2023-02-15T00:09:28;7.90;92.40
15844;DHT22;50807;52.436;13.346;2023-02-15T00:09:59;7.90;92.50
15844;DHT22;50807;52.436;13.346;2023-02-15T00:10:30;7.90;92.50
15844;DHT22;50807;52.436;13.346;2023-02-15T00:11:08;7.90;92.50
15844;DHT22;50807;52.436;13.346;2023-02-15T00:11:42;7.90;92.60
15844;DHT22;50807;52.436;13.346;2023-02-15T00:12:15;7.90;92.50
15844;DHT22;50807;52.436;13.346;2023-02-15T00:12:46;7.90;92.50
15844;DHT22;50807;52.436;13.346;2023-02-15T00:13:18;7.90;92.50
15844;DHT22;50807;52.436;13.346;2023-02-15T00:13:49;7.90;92.50
15844;DHT22;50807;52.436;13.346;2023-02-15T00:14:21;7.90;92.50
15844;DHT22;50807;52.436;13.346;2023-02-15T00:14:54;7.80;92.50
15844;DHT22;50807;52.436;13.346;2023-02-15T00:15:25;7.90;92.60
15844;DHT22;50807;52.436;13.346;2023-02-15T00:16:00;7.90;92.60
15844;DHT22;50807;52.436;13.346;2023-02-15T00:16:33;7.90;92.60
15844;DHT22;50807;52.436;13.346;2023-02-15T00:17:04;7.80;92.60
15844;DHT22;50807;52.436;13.346;2023-02-15T00:17:35;7.80;92.60
15844;DHT22;50807;52.436;13.346;2023-02-15T00:18:07;7.80;92.60
15844;DHT22;50807;52.436;13.346;2023-02-15T00:18:38;7.80;92.60
15844;DHT22;50807;52.436;13.346;2023-02-15T00:19:10;7.80;92.60
15844;DHT22;50807;52.436;13.346;2023-02-15T00:19:43;7.80;92.60
15844;DHT22;50807;52.436;13.346;2023-02-15T00:20:14;7.80;92.60
15844;DHT22;50807;52.436;13.346;2023-02-15T00:20:45;7.80;92.70
15844;DHT22;50807;52.436;13.346;2023-02-15T00:21:17;7.80;92.70
15844;DHT22;50807;52.436;13.346;2023-02-15T00:21:48;7.80;92.70
15844;DHT22;50807;52.436;13.346;2023-02-15T00:22:20;7.80;92.70
15844;DHT22;50807;52.436;13.346;2023-02-15T00:22:52;7.70;92.70
15844;DHT22;50807;52.436;13.346;2023-02-15T00:23:22;7.80;92.70
15844;DHT22;50807;52.436;13.346;2023-02-15T00:23:53;7.80;92.80
15844;DHT22;50807;52.436;13.346;2023-02-15T00:24:24;7.70;92.70
15844;DHT22;50807;52.436;13.346;2023-02-15T00:24:57;7.80;92.80
15844;DHT22;50807;52.436;13.346;2023-02-15T00:25:28;7.80;92.80
15844;DHT22;50807;52.436;13.346;2023-02-15T00:26:06;7.70;92.80
15844;DHT22;50807;52.436;13.346;2023-02-15T00:26:40;7.70;92.80
15844;DHT22;50807;52.436;13.346;2023-02-15T00:27:11;7.70;92.80
15844;DHT22;50807;52.436;13.346;2023-02-15T00:27:42;7.70;92.80
15844;DHT22;50807;52.436;13.346;2023-02-15T00:28:14;7.70;92.90
15844;DHT22;50807;52.436;13.346;2023-02-15T00:28:45;7.70;92.80
15844;DHT22;50807;52.436;13.346;2023-02-15T00:29:17;7.70;92.80
15844;DHT22;50807;52.436;13.346;2023-02-15T00:29:50;7.70;92.80
15844;DHT22;50807;52.436;13.346;2023-02-15T00:30:21;7.70;92.80
15844;DHT22;50807;52.436;13.346;2023-02-15T00:30:52;7.70;92.80
15844;DHT22;50807;52.436;13.346;2023-02-15T00:31:25;7.70;92.80
15844;DHT22;50807;52.436;13.346;2023-02-15T00:31:56;7.70;92.90
15844;DHT22;50807;52.436;13.346;2023-02-15T00:32:28;7.70;92.90
15844;DHT22;50807;52.436;13.346;2023-02-15T00:32:59;7.70;92.90
15844;DHT22;50807;52.436;13.346;2023-02-15T00:33:30;7.70;92.90
15844;DHT22;50807;52.436;13.346;2023-02-15T00:34:01;7.70;92.90
15844;DHT22;50807;52.436;13.346;2023-02-15T00:34:34;7.70;92.90
15844;DHT22;50807;52.436;13.346;2023-02-15T00:35:05;7.70;93.00
15844;DHT22;50807;52.436;13.346;2023-02-15T00:35:37;7.70;92.90
15844;DHT22;50807;52.436;13.346;2023-02-15T00:36:09;7.60;92.90
15844;DHT22;50807;52.436;13.346;2023-02-15T00:36:41;7.70;93.00
15844;DHT22;50807;52.436;13.346;2023-02-15T00:37:12;7.60;93.00
15844;DHT22;50807;52.436;13.346;2023-02-15T00:37:44;7.60;93.00
15844;DHT22;50807;52.436;13.346;2023-02-15T00:38:14;7.60;93.00
15844;DHT22;50807;52.436;13.346;2023-02-15T00:38:45;7.60;93.00
15844;DHT22;50807;52.436;13.346;2023-02-15T00:39:17;7.60;93.00
15844;DHT22;50807;52.436;13.346;2023-02-15T00:39:48;7.60;93.10
15844;DHT22;50807;52.436;13.346;2023-02-15T00:40:20;7.60;93.00
15844;DHT22;50807;52.436;13.346;2023-02-15T00:40:53;7.60;93.10
15844;DHT22;50807;52.436;13.346;2023-02-15T00:41:24;7.60;93.10
15844;DHT22;50807;52.436;13.346;2023-02-15T00:41:55;7.60;93.10
15844;DHT22;50807;52.436;13.346;2023-02-15T00:42:27;7.60;93.10
15844;DHT22;50807;52.436;13.346;2023-02-15T00:42:57;7.60;93.10
15844;DHT22;50807;52.436;13.346;2023-02-15T00:43:30;7.60;93.10
15844;DHT22;50807;52.436;13.346;2023-02-15T00:44:02;7.60;93.20
15844;DHT22;50807;52.436;13.346;2023-02-15T00:44:34;7.60;93.20
15844;DHT22;50807;52.436;13.346;2023-02-15T00:45:05;7.60;93.20
15844;DHT22;50807;52.436;13.346;2023-02-15T00:45:37;7.60;93.20
15844;DHT22;50807;52.436;13.346;2023-02-15T00:46:07;7.50;93.20
15844;DHT22;50807;52.436;13.346;2023-02-15T00:46:39;7.50;93.20
15844;DHT22;50807;52.436;13.346;2023-02-15T00:47:10;7.50;93.20
15844;DHT22;50807;52.436;13.346;2023-02-15T00:47:40;7.50;93.20
15844;DHT22;50807;52.436;13.346;2023-02-15T00:48:12;7.50;93.20
15844;DHT22;50807;52.436;13.346;2023-02-15T00:48:43;7.50;93.20
15844;DHT22;50807;52.436;13.346;2023-02-15T00:49:14;7.50;93.20
15844;DHT22;50807;52.436;13.346;2023-02-15T00:49:45;7.50;93.20
15844;DHT22;50807;52.436;13.346;2023-02-15T00:50:16;7.50;93.30
15844;DHT22;50807;52.436;13.346;2023-02-15T00:50:49;7.50;93.30
15844;DHT22;50807;52.436;13.346;2023-02-15T00:51:22;7.50;93.30
15844;DHT22;50807;52.436;13.346;2023-02-15T00:51:53;7.50;93.40
15844;DHT22;50807;52.436;13.346;2023-02-15T00:52:24;7.50;93.30
15844;DHT22;50807;52.436;13.346;2023-02-15T00:52:55;7.50;93.30
15844;DHT22;50807;52.436;13.346;2023-02-15T00:53:27;7.50;93.30
15844;DHT22;50807;52.436;13.346;2023-02-15T00:53:59;7.50;93.30
15844;DHT22;50807;52.436;13.346;2023-02-15T00:54:30;7.50;93.30
15844;DHT22;50807;52.436;13.346;2023-02-15T00:55:01;7.50;93.30
15844;DHT22;50807;52.436;13.346;2023-02-15T00:55:33;7.50;93.30
15844;DHT22;50807;52.436;13.346;2023-02-15T00:56:05;7.50;93.40
15844;DHT22;50807;52.436;13.346;2023-02-15T00:56:36;7.50;93.40
15844;DHT22;50807;52.436;13.346;2023-02-15T00:57:07;7.50;93.40
15844;DHT22;50807;52.436;13.346;2023-02-15T00:57:38;7.50;93.40
15844;DHT22;50807;52.436;13.346;2023-02-15T00:58:10;7.50;93.40
15844;DHT22;50807;52.436;13.346;2023-02-15T00:58:41;7.50;93.40
15844;DHT22;50807;52.436;13.346;2023-02-15T00:59:13;7.40;93.40
15844;DHT22;50807;52.436;13.346;2023-02-15T00:59:44;7.40;93.40
15844;DHT22;50807;52.436;13.346;2023-02-15T01:00:15;7.40;93.40
15844;DHT22;50807;52.436;13.346;2023-02-15T01:00:47;7.40;93.40
15844;DHT22;50807;52.436;13.346;2023-02-15T01:01:20;7.40;93.40
15844;DHT22;50807;52.436;13.346;2023-02-15T01:01:51;7.40;93.40
15844;DHT22;50807;52.436;13.346;2023-02-15T01:02:22;7.40;93.40
15844;DHT22;50807;52.436;13.346;2023-02-15T01:02:53;7.40;93.40
15844;DHT22;50807;52.436;13.346;2023-02-15T01:03:24;7.40;93.40
15844;DHT22;50807;52.436;13.346;2023-02-15T01:03:55;7.40;93.40
15844;DHT22;50807;52.436;13.346;2023-02-15T01:04:27;7.40;93.40
15844;DHT22;50807;52.436;13.346;2023-02-15T01:04:57;7.40;93.40
15844;DHT22;50807;52.436;13.346;2023-02-15T01:05:29;7.40;93.40
15844;DHT22;50807;52.436;13.346;2023-02-15T01:06:01;7.40;93.40
15844;DHT22;50807;52.436;13.346;2023-02-15T01:06:33;7.40;93.40
15844;DHT22;50807;52.436;13.346;2023-02-15T01:07:04;7.40;93.40
15844;DHT22;50807;52.436;13.346;2023-02-15T01:07:35;7.40;93.40
15844;DHT22;50807;52.436;13.346;2023-02-15T01:08:07;7.40;93.40
15844;DHT22;50807;52.436;13.346;2023-02-15T01:08:38;7.40;93.40
15844;DHT22;50807;52.436;13.346;2023-02-15T01:09:09;7.40;93.40
15844;DHT22;50807;52.436;13.346;2023-02-15T01:09:42;7.40;93.40
15844;DHT22;50807;52.436;13.346;2023-02-15T01:10:13;7.40;93.40
15844;DHT22;50807;52.436;13.346;2023-02-15T01:10:45;7.40;93.40
15844;DHT22;50807;52.436;13.346;2023-02-15T01:11:19;7.30;93.40
15844;DHT22;50807;52.436;13.346;2023-02-15T01:11:52;7.30;93.40
15844;DHT22;50807;52.436;13.346;2023-02-15T01:12:23;7.30;93.40
15844;DHT22;50807;52.436;13.346;2023-02-15T01:12:55;7.30;93.40
15844;DHT22;50807;52.436;13.346;2023-02-15T01:13:26;7.30;93.40
15844;DHT22;50807;52.436;13.346;2023-02-15T01:13:58;7.30;93.40
15844;DHT22;50807;52.436;13.346;2023-02-15T01:14:29;7.30;93.40
15844;DHT22;50807;52.436;13.346;2023-02-15T01:15:00;7.30;93.40
15844;DHT22;50807;52.436;13.346;2023-02-15T01:15:34;7.30;93.40
15844;DHT22;50807;52.436;13.346;2023-02-15T01:16:05;7.30;93.50
15844;DHT22;50807;52.436;13.346;2023-02-15T01:16:36;7.30;93.50
15844;DHT22;50807;52.436;13.346;2023-02-15T01:17:08;7.30;93.50
15844;DHT22;50807;52.436;13.346;2023-02-15T01:17:38;7.30;93.50
15844;DHT22;50807;52.436;13.346;2023-02-15T01:18:09;7.30;93.50
15844;DHT22;50807;52.436;13.346;2023-02-15T01:18:41;7.30;93.50
15844;DHT22;50807;52.436;13.346;2023-02-15T01:19:12;7.30;93.50
15844;DHT22;50807;52.436;13.346;2023-02-15T01:19:43;7.30;93.50
15844;DHT22;50807;52.436;13.346;2023-02-15T01:20:15;7.20;93.50
15844;DHT22;50807;52.436;13.346;2023-02-15T01:20:46;7.20;93.50
15844;DHT22;50807;52.436;13.346;2023-02-15T01:21:20;7.30;93.50
15844;DHT22;50807;52.436;13.346;2023-02-15T01:21:54;7.20;93.50
15844;DHT22;50807;52.436;13.346;2023-02-15T01:22:25;7.20;93.50
15844;DHT22;50807;52.436;13.346;2023-02-15T01:22:56;7.20;93.50
15844;DHT22;50807;52.436;13.346;2023-02-15T01:23:27;7.20;93.50
15844;DHT22;50807;52.436;13.346;2023-02-15T01:23:59;7.20;93.50
15844;DHT22;50807;52.436;13.346;2023-02-15T01:24:30;7.20;93.50
15844;DHT22;50807;52.436;13.346;2023-02-15T01:25:01;7.20;93.50
15844;DHT22;50807;52.436;13.346;2023-02-15T01:25:34;7.20;93.50
15844;DHT22;50807;52.436;13.346;2023-02-15T01:26:07;7.20;93.50
15844;DHT22;50807;52.436;13.346;2023-02-15T01:26:38;7.20;93.50
15844;DHT22;50807;52.436;13.346;2023-02-15T01:27:10;7.20;93.50
15844;DHT22;50807;52.436;13.346;2023-02-15T01:27:40;7.20;93.50
15844;DHT22;50807;52.436;13.346;2023-02-15T01:28:11;7.20;93.60
15844;DHT22;50807;52.436;13.346;2023-02-15T01:28:44;7.20;93.60
15844;DHT22;50807;52.436;13.346;2023-02-15T01:29:15;7.20;93.60
15844;DHT22;50807;52.436;13.346;2023-02-15T01:29:46;7.20;93.60
15844;DHT22;50807;52.436;13.346;2023-02-15T01:30:18;7.20;93.60
15844;DHT22;50807;52.436;13.346;2023-02-15T01:30:49;7.20;93.60
15844;DHT22;50807;52.436;13.346;2023-02-15T01:31:20;7.10;93.60
15844;DHT22;50807;52.436;13.346;2023-02-15T01:31:52;7.10;93.60
15844;DHT22;50807;52.436;13.346;2023-02-15T01:32:23;7.10;93.60
15844;DHT22;50807;52.436;13.346;2023-02-15T01:32:54;7.10;93.60
15844;DHT22;50807;52.436;13.346;2023-02-15T01:33:24;7.10;93.60
15844;DHT22;50807;52.436;13.346;2023-02-15T01:33:56;7.10;93.80
15844;DHT22;50807;52.436;13.346;2023-02-15T01:34:29;7.10;93.60
15844;DHT22;50807;52.436;13.346;2023-02-15T01:35:00;7.10;93.70
15844;DHT22;50807;52.436;13.346;2023-02-15T01:35:32;7.10;93.80
15844;DHT22;50807;52.436;13.346;2023-02-15T01:36:03;7.10;93.70
15844;DHT22;50807;52.436;13.346;2023-02-15T01:36:36;7.10;93.70
15844;DHT22;50807;52.436;13.346;2023-02-15T01:37:07;7.10;93.70
15844;DHT22;50807;52.436;13.346;2023-02-15T01:37:38;7.10;93.70
15844;DHT22;50807;52.436;13.346;2023-02-15T01:38:09;7.10;93.70
15844;DHT22;50807;52.436;13.346;2023-02-15T01:38:40;7.10;93.70
15844;DHT22;50807;52.436;13.346;2023-02-15T01:39:11;7.10;93.70
15844;DHT22;50807;52.436;13.346;2023-02-15T01:39:43;7.10;93.70
15844;DHT22;50807;52.436;13.346;2023-02-15T01:40:16;7.10;93.70
15844;DHT22;50807;52.436;13.346;2023-02-15T01:40:50;7.10;93.70
15844;DHT22;50807;52.436;13.346;2023-02-15T01:41:24;7.10;93.70
15844;DHT22;50807;52.436;13.346;2023-02-15T01:41:56;7.00;93.70
15844;DHT22;50807;52.436;13.346;2023-02-15T01:42:28;7.10;93.70
15844;DHT22;50807;52.436;13.346;2023-02-15T01:43:00;7.10;93.70
15844;DHT22;50807;52.436;13.346;2023-02-15T01:43:39;7.00;93.70
15844;DHT22;50807;52.436;13.346;2023-02-15T01:44:48;7.00;93.80
15844;DHT22;50807;52.436;13.346;2023-02-15T01:45:23;7.00;93.80
15844;DHT22;50807;52.436;13.346;2023-02-15T01:45:56;7.10;93.70
15844;DHT22;50807;52.436;13.346;2023-02-15T01:46:30;7.10;93.60
15844;DHT22;50807;52.436;13.346;2023-02-15T01:47:08;7.00;93.60
15844;DHT22;50807;52.436;13.346;2023-02-15T01:47:42;7.00;93.60
15844;DHT22;50807;52.436;13.346;2023-02-15T01:48:20;7.00;93.50
15844;DHT22;50807;52.436;13.346;2023-02-15T01:48:59;7.00;93.50
15844;DHT22;50807;52.436;13.346;2023-02-15T01:49:32;7.00;93.50
15844;DHT22;50807;52.436;13.346;2023-02-15T01:50:09;7.00;93.50
15844;DHT22;50807;52.436;13.346;2023-02-15T01:50:48;7.00;93.60
15844;DHT22;50807;52.436;13.346;2023-02-15T01:51:24;7.00;93.50
15844;DHT22;50807;52.436;13.346;2023-02-15T01:51:59;7.00;93.50
15844;DHT22;50807;52.436;13.346;2023-02-15T01:52:31;7.00;93.50
15844;DHT22;50807;52.436;13.346;2023-02-15T01:53:09;7.00;93.50
15844;DHT22;50807;52.436;13.346;2023-02-15T01:53:48;7.00;93.50
15844;DHT22;50807;52.436;13.346;2023-02-15T01:54:27;7.00;93.50
15844;DHT22;50807;52.436;13.346;2023-02-15T01:55:01;7.00;93.50
15844;DHT22;50807;52.436;13.346;2023-02-15T01:55:38;6.90;93.50
15844;DHT22;50807;52.436;13.346;2023-02-15T01:56:14;6.90;93.50
15844;DHT22;50807;52.436;13.346;2023-02-15T01:56:48;6.90;93.50
15844;DHT22;50807;52.436;13.346;2023-02-15T01:57:23;6.90;93.50
15844;DHT22;50807;52.436;13.346;2023-02-15T01:57:56;6.90;93.50
15844;DHT22;50807;52.436;13.346;2023-02-15T01:58:28;6.90;93.50
15844;DHT22;50807;52.436;13.346;2023-02-15T01:59:03;6.90;93.50
15844;DHT22;50807;52.436;13.346;2023-02-15T01:59:39;6.90;93.60
15844;DHT22;50807;52.436;13.346;2023-02-15T02:00:14;6.90;93.60
15844;DHT22;50807;52.436;13.346;2023-02-15T02:00:47;6.90;93.60
15844;DHT22;50807;52.436;13.346;2023-02-15T02:01:19;6.90;93.60
15844;DHT22;50807;52.436;13.346;2023-02-15T02:01:51;6.90;93.60
15844;DHT22;50807;52.436;13.346;2023-02-15T02:02:23;6.90;93.60
15844;DHT22;50807;52.436;13.346;2023-02-15T02:02:57;6.80;93.60
15844;DHT22;50807;52.436;13.346;2023-02-15T02:03:36;6.80;93.60
15844;DHT22;50807;52.436;13.346;2023-02-15T02:04:16;6.80;93.70
15844;DHT22;50807;52.436;13.346;2023-02-15T02:04:52;6.80;93.70
15844;DHT22;50807;52.436;13.346;2023-02-15T02:05:25;6.80;93.70
15844;DHT22;50807;52.436;13.346;2023-02-15T02:05:56;6.80;93.70
15844;DHT22;50807;52.436;13.346;2023-02-15T02:06:28;6.80;93.70
15844;DHT22;50807;52.436;13.346;2023-02-15T02:07:01;6.80;93.70
15844;DHT22;50807;52.436;13.346;2023-02-15T02:07:35;6.80;93.80
15844;DHT22;50807;52.436;13.346;2023-02-15T02:08:08;6.80;93.80
15844;DHT22;50807;52.436;13.346;2023-02-15T02:08:41;6.80;93.80
15844;DHT22;50807;52.436;13.346;2023-02-15T02:09:13;6.80;93.80
15844;DHT22;50807;52.436;13.346;2023-02-15T02:09:44;6.80;93.90
15844;DHT22;50807;52.436;13.346;2023-02-15T02:10:18;6.80;93.90
15844;DHT22;50807;52.436;13.346;2023-02-15T02:10:52;6.80;93.90
15844;DHT22;50807;52.436;13.346;2023-02-15T02:11:23;6.80;93.90
15844;DHT22;50807;52.436;13.346;2023-02-15T02:11:55;6.80;93.90
15844;DHT22;50807;52.436;13.346;2023-02-15T02:12:27;6.80;93.90
15844;DHT22;50807;52.436;13.346;2023-02-15T02:13:01;6.80;93.90
15844;DHT22;50807;52.436;13.346;2023-02-15T02:13:34;6.70;93.90
15844;DHT22;50807;52.436;13.346;2023-02-15T02:14:06;6.80;93.90
15844;DHT22;50807;52.436;13.346;2023-02-15T02:14:37;6.70;93.90
15844;DHT22;50807;52.436;13.346;2023-02-15T02:15:09;6.70;94.00
15844;DHT22;50807;52.436;13.346;2023-02-15T02:15:47;6.70;94.00
15844;DHT22;50807;52.436;13.346;2023-02-15T02:16:23;6.70;94.00
15844;DHT22;50807;52.436;13.346;2023-02-15T02:17:03;6.70;94.00
15844;DHT22;50807;52.436;13.346;2023-02-15T02:17:51;6.70;94.00
15844;DHT22;50807;52.436;13.346;2023-02-15T02:18:41;6.70;94.00
15844;DHT22;50807;52.436;13.346;2023-02-15T02:19:44;6.70;94.00
15844;DHT22;50807;52.436;13.346;2023-02-15T02:21:04;6.70;94.00
15844;DHT22;50807;52.436;13.346;2023-02-15T02:22:28;6.70;94.00
15844;DHT22;50807;52.436;13.346;2023-02-15T02:23:25;6.80;93.90
15844;DHT22;50807;52.436;13.346;2023-02-15T02:24:38;6.80;93.70
15844;DHT22;50807;52.436;13.346;2023-02-15T02:25:59;6.80;93.90
15844;DHT22;50807;52.436;13.346;2023-02-15T02:27:27;6.80;93.60
15844;DHT22;50807;52.436;13.346;2023-02-15T02:28:13;6.80;93.60
15844;DHT22;50807;52.436;13.346;2023-02-15T02:29:27;6.90;93.50
15844;DHT22;50807;52.436;13.346;2023-02-15T02:30:42;6.80;93.50
15844;DHT22;50807;52.436;13.346;2023-02-15T02:31:52;6.80;93.40
15844;DHT22;50807;52.436;13.346;2023-02-15T02:33:00;6.80;93.40
15844;DHT22;50807;52.436;13.346;2023-02-15T02:34:01;6.80;93.40
15844;DHT22;50807;52.436;13.346;2023-02-15T02:34:43;6.80;93.40
15844;DHT22;50807;52.436;13.346;2023-02-15T02:35:26;6.80;93.30
15844;DHT22;50807;52.436;13.346;2023-02-15T02:36:12;6.70;93.30
15844;DHT22;50807;52.436;13.346;2023-02-15T02:36:55;6.70;93.30
15844;DHT22;50807;52.436;13.346;2023-02-15T02:37:34;6.70;93.60
15844;DHT22;50807;52.436;13.346;2023-02-15T02:38:20;6.60;93.40
15844;DHT22;50807;52.436;13.346;2023-02-15T02:39:07;6.60;93.40
15844;DHT22;50807;52.436;13.346;2023-02-15T02:39:51;6.60;93.50
15844;DHT22;50807;52.436;13.346;2023-02-15T02:40:36;6.60;93.60
15844;DHT22;50807;52.436;13.346;2023-02-15T02:41:19;6.60;93.60
15844;DHT22;50807;52.436;13.346;2023-02-15T02:42:00;6.60;93.60
15844;DHT22;50807;52.436;13.346;2023-02-15T02:42:39;6.60;93.70
15844;DHT22;50807;52.436;13.346;2023-02-15T02:43:19;6.50;93.60
15844;DHT22;50807;52.436;13.346;2023-02-15T02:44:02;6.50;93.70
15844;DHT22;50807;52.436;13.346;2023-02-15T02:44:42;6.50;93.70
15844;DHT22;50807;52.436;13.346;2023-02-15T02:45:18;6.50;93.80
15844;DHT22;50807;52.436;13.346;2023-02-15T02:45:58;6.50;93.80
15844;DHT22;50807;52.436;13.346;2023-02-15T02:46:37;6.50;93.90
15844;DHT22;50807;52.436;13.346;2023-02-15T02:47:18;6.50;93.90
15844;DHT22;50807;52.436;13.346;2023-02-15T02:47:58;6.50;93.90
15844;DHT22;50807;52.436;13.346;2023-02-15T02:48:33;6.50;94.00
15844;DHT22;50807;52.436;13.346;2023-02-15T02:49:05;6.50;94.00
15844;DHT22;50807;52.436;13.346;2023-02-15T02:49:38;6.40;94.00
15844;DHT22;50807;52.436;13.346;2023-02-15T02:50:13;6.40;94.00
15844;DHT22;50807;52.436;13.346;2023-02-15T02:50:47;6.40;94.10
15844;DHT22;50807;52.436;13.346;2023-02-15T02:51:17;6.40;94.10
15844;DHT22;50807;52.436;13.346;2023-02-15T02:51:58;6.40;94.10
15844;DHT22;50807;52.436;13.346;2023-02-15T02:52:39;6.40;94.20
15844;DHT22;50807;52.436;13.346;2023-02-15T02:53:11;6.40;94.30
15844;DHT22;50807;52.436;13.346;2023-02-15T02:53:42;6.40;94.20
15844;DHT22;50807;52.436;13.346;2023-02-15T02:54:14;6.40;94.30
15844;DHT22;50807;52.436;13.346;2023-02-15T02:54:45;6.40;94.30
15844;DHT22;50807;52.436;13.346;2023-02-15T02:55:18;6.40;94.30
15844;DHT22;50807;52.436;13.346;2023-02-15T02:55:56;6.40;94.40
15844;DHT22;50807;52.436;13.346;2023-02-15T02:56:35;6.40;94.40
15844;DHT22;50807;52.436;13.346;2023-02-15T02:57:09;6.40;94.50
15844;DHT22;50807;52.436;13.346;2023-02-15T02:57:45;6.40;94.50
15844;DHT22;50807;52.436;13.346;2023-02-15T02:58:25;6.30;94.50
15844;DHT22;50807;52.436;13.346;2023-02-15T02:59:05;6.40;94.50
15844;DHT22;50807;52.436;13.346;2023-02-15T02:59:44;6.30;94.50
15844;DHT22;50807;52.436;13.346;2023-02-15T03:00:17;6.30;94.50
15844;DHT22;50807;52.436;13.346;2023-02-15T03:00:52;6.30;94.50
15844;DHT22;50807;52.436;13.346;2023-02-15T03:01:30;6.30;94.50
15844;DHT22;50807;52.436;13.346;2023-02-15T03:02:05;6.30;94.50
15844;DHT22;50807;52.436;13.346;2023-02-15T03:02:45;6.30;94.50
15844;DHT22;50807;52.436;13.346;2023-02-15T03:03:25;6.30;94.50
15844;DHT22;50807;52.436;13.346;2023-02-15T03:04:04;6.30;94.60
15844;DHT22;50807;52.436;13.346;2023-02-15T03:04:41;6.30;94.60
15844;DHT22;50807;52.436;13.346;2023-02-15T03:05:19;6.30;94.60
15844;DHT22;50807;52.436;13.346;2023-02-15T03:05:59;6.30;94.60
15844;DHT22;50807;52.436;13.346;2023-02-15T03:06:38;6.30;94.60
15844;DHT22;50807;52.436;13.346;2023-02-15T03:07:13;6.30;94.60
15844;DHT22;50807;52.436;13.346;2023-02-15T03:07:53;6.30;94.60
15844;DHT22;50807;52.436;13.346;2023-02-15T03:08:31;6.30;94.60
15844;DHT22;50807;52.436;13.346;2023-02-15T03:09:10;6.30;94.60
15844;DHT22;50807;52.436;13.346;2023-02-15T03:09:53;6.30;94.60
15844;DHT22;50807;52.436;13.346;2023-02-15T03:10:27;6.30;94.60
15844;DHT22;50807;52.436;13.346;2023-02-15T03:11:01;6.30;94.60
15844;DHT22;50807;52.436;13.346;2023-02-15T03:11:34;6.30;94.60
15844;DHT22;50807;52.436;13.346;2023-02-15T03:12:06;6.30;94.90
15844;DHT22;50807;52.436;13.346;2023-02-15T03:12:39;6.30;94.60
15844;DHT22;50807;52.436;13.346;2023-02-15T03:13:10;6.30;94.60
15844;DHT22;50807;52.436;13.346;2023-02-15T03:13:43;6.20;94.60
15844;DHT22;50807;52.436;13.346;2023-02-15T03:14:18;6.30;94.70
15844;DHT22;50807;52.436;13.346;2023-02-15T03:14:51;6.20;94.70
15844;DHT22;50807;52.436;13.346;2023-02-15T03:15:26;6.30;94.80
15844;DHT22;50807;52.436;13.346;2023-02-15T03:16:21;6.20;94.80
15844;DHT22;50807;52.436;13.346;2023-02-15T03:16:56;6.20;94.80
15844;DHT22;50807;52.436;13.346;2023-02-15T03:17:31;6.20;94.80
15844;DHT22;50807;52.436;13.346;2023-02-15T03:18:04;6.20;94.80
15844;DHT22;50807;52.436;13.346;2023-02-15T03:18:40;6.20;94.70
15844;DHT22;50807;52.436;13.346;2023-02-15T03:19:17;6.20;94.80
15844;DHT22;50807;52.436;13.346;2023-02-15T03:19:56;6.20;94.80
15844;DHT22;50807;52.436;13.346;2023-02-15T03:20:33;6.20;94.80
15844;DHT22;50807;52.436;13.346;2023-02-15T03:21:08;6.20;94.80
15844;DHT22;50807;52.436;13.346;2023-02-15T03:21:56;6.20;94.80
15844;DHT22;50807;52.436;13.346;2023-02-15T03:22:44;6.20;94.90
15844;DHT22;50807;52.436;13.346;2023-02-15T03:23:22;6.20;94.80
15844;DHT22;50807;52.436;13.346;2023-02-15T03:24:00;6.20;94.80
15844;DHT22;50807;52.436;13.346;2023-02-15T03:24:40;6.20;94.80
15844;DHT22;50807;52.436;13.346;2023-02-15T03:25:19;6.20;94.80
15844;DHT22;50807;52.436;13.346;2023-02-15T03:25:57;6.20;94.80
15844;DHT22;50807;52.436;13.346;2023-02-15T03:26:30;6.20;94.80
15844;DHT22;50807;52.436;13.346;2023-02-15T03:27:07;6.20;94.80
15844;DHT22;50807;52.436;13.346;2023-02-15T03:27:45;6.20;94.80
15844;DHT22;50807;52.436;13.346;2023-02-15T03:28:23;6.20;94.80
15844;DHT22;50807;52.436;13.346;2023-02-15T03:28:59;6.20;94.80
15844;DHT22;50807;52.436;13.346;2023-02-15T03:29:35;6.20;94.80
15844;DHT22;50807;52.436;13.346;2023-02-15T03:30:09;6.10;94.80
15844;DHT22;50807;52.436;13.346;2023-02-15T03:30:46;6.10;94.80
15844;DHT22;50807;52.436;13.346;2023-02-15T03:31:26;6.10;94.90
15844;DHT22;50807;52.436;13.346;2023-02-15T03:32:03;6.10;94.90
15844;DHT22;50807;52.436;13.346;2023-02-15T03:32:38;6.10;94.90
15844;DHT22;50807;52.436;13.346;2023-02-15T03:33:11;6.10;94.90
15844;DHT22;50807;52.436;13.346;2023-02-15T03:33:51;6.10;94.90
15844;DHT22;50807;52.436;13.346;2023-02-15T03:34:25;6.10;94.90
15844;DHT22;50807;52.436;13.346;2023-02-15T03:34:57;6.10;94.90
15844;DHT22;50807;52.436;13.346;2023-02-15T03:35:45;6.10;94.90
15844;DHT22;50807;52.436;13.346;2023-02-15T03:36:22;6.10;94.90
15844;DHT22;50807;52.436;13.346;2023-02-15T03:37:04;6.10;94.90
15844;DHT22;50807;52.436;13.346;2023-02-15T03:37:42;6.10;95.00
15844;DHT22;50807;52.436;13.346;2023-02-15T03:38:21;6.10;94.90
15844;DHT22;50807;52.436;13.346;2023-02-15T03:39:05;6.00;94.90
15844;DHT22;50807;52.436;13.346;2023-02-15T03:39:45;6.00;94.90
15844;DHT22;50807;52.436;13.346;2023-02-15T03:40:24;6.00;94.90
15844;DHT22;50807;52.436;13.346;2023-02-15T03:41:19;6.00;94.80
15844;DHT22;50807;52.436;13.346;2023-02-15T03:41:58;6.00;94.80
15844;DHT22;50807;52.436;13.346;2023-02-15T03:42:38;6.00;94.80
15844;DHT22;50807;52.436;13.346;2023-02-15T03:43:14;6.00;94.80
15844;DHT22;50807;52.436;13.346;2023-02-15T03:43:52;6.00;94.80
15844;DHT22;50807;52.436;13.346;2023-02-15T03:44:28;6.00;94.80